Time;durP1;ratioP1;P1;durP2;ratioP2;P2;SDS_P1;SDS_P2;PMS_P1;PMS_P2;Temp;Humidity;BMP_temperature;BMP_pressure;BME280_temperature;BME280_humidity;BME280_pressure;Samples;Min_cycle;Max_cycle;Signal;HPM_P1;HPM_P2
2021/05/28 00:26:17;;;;;;;10.67;4.70;;;;;;;;;;5151792;27;20084;31
2021/05/28 00:28:48;;;;;;;9.20;3.85;;;;;;;;;;5181019;27;20148;-65
2021/05/28 00:31:15;;;;;;;10.80;3.85;;;;;;;;;;5180736;27;20085;-66
2021/05/28 00:33:41;;;;;;;9.80;3.90;;;;;;;;;;5180911;27;20062;-65
2021/05/28 00:36:07;;;;;;;12.32;4.03;;;;;;;;;;5180741;27;20062;-67
2021/05/28 00:38:33;;;;;;;9.32;4.20;;;;;;;;;;5196936;27;20108;-64
2021/05/28 00:40:59;;;;;;;9.38;4.45;;;;;;;;;;5180762;27;20078;-67
2021/05/28 00:43:24;;;;;;;6.55;3.20;;;;;;;;;;5179037;27;20086;-65
2021/05/28 00:45:50;;;;;;;5.07;2.80;;;;;;;;;;5180863;27;20188;-66
2021/05/28 00:48:17;;;;;;;15.20;3.33;;;;;;;;;;5180915;27;20158;-65
2021/05/28 00:50:43;;;;;;;11.20;3.40;;;;;;;;;;5179269;27;20194;-65
2021/05/28 00:53:09;;;;;;;11.00;3.90;;;;;;;;;;5180820;27;20192;-65
2021/05/28 00:55:35;;;;;;;9.15;3.70;;;;;;;;;;5179082;27;20492;-68
2021/05/28 00:58:01;;;;;;;8.05;3.37;;;;;;;;;;5179221;27;20393;-67
2021/05/28 01:00:27;;;;;;;13.48;3.70;;;;;;;;;;5180644;27;20105;-65
2021/05/28 01:02:54;;;;;;;8.50;2.90;;;;;;;;;;5178904;27;20069;-66
2021/05/28 01:05:20;;;;;;;13.27;3.50;;;;;;;;;;5178999;27;20608;-66
2021/05/28 01:07:46;;;;;;;7.57;3.10;;;;;;;;;;5180751;27;20420;-67
2021/05/28 01:10:12;;;;;;;3.90;2.45;;;;;;;;;;5179174;27;20082;-66
2021/05/28 01:12:38;;;;;;;6.07;2.40;;;;;;;;;;5178930;27;20085;-69
2021/05/28 01:15:06;;;;;;;6.57;2.22;;;;;;;;;;5180559;27;20268;-68
2021/05/28 01:17:32;;;;;;;4.78;2.40;;;;;;;;;;5180860;27;20062;-66
2021/05/28 01:19:58;;;;;;;5.37;3.33;;;;;;;;;;5180588;27;20527;-66
2021/05/28 01:22:24;;;;;;;7.07;2.47;;;;;;;;;;5180492;27;20117;-67
2021/05/28 01:24:50;;;;;;;4.20;2.35;;;;;;;;;;5179289;27;20305;-65
2021/05/28 01:27:16;;;;;;;4.95;2.05;;;;;;;;;;5178471;27;20117;-65
2021/05/28 01:29:43;;;;;;;8.32;2.55;;;;;;;;;;5180614;27;20156;-66
2021/05/28 01:32:08;;;;;;;7.12;2.50;;;;;;;;;;5180373;27;20448;-68
2021/05/28 01:34:34;;;;;;;6.90;2.40;;;;;;;;;;5180839;27;20149;-65
2021/05/28 01:37:00;;;;;;;6.20;2.62;;;;;;;;;;5178453;27;20183;-65
2021/05/28 01:39:26;;;;;;;8.02;2.30;;;;;;;;;;5180522;27;20098;-65
2021/05/28 01:41:52;;;;;;;6.03;2.22;;;;;;;;;;5180660;27;20429;-68
2021/05/28 01:44:18;;;;;;;6.78;2.17;;;;;;;;;;5180815;27;20090;-65
2021/05/28 01:46:44;;;;;;;9.40;2.97;;;;;;;;;;5178819;27;20097;-65
2021/05/28 01:49:10;;;;;;;6.60;2.50;;;;;;;;;;5180306;27;20113;-67
2021/05/28 01:51:36;;;;;;;8.27;2.60;;;;;;;;;;5180596;27;20062;-65
2021/05/28 01:54:02;;;;;;;6.93;2.40;;;;;;;;;;5180356;27;20191;-65
2021/05/28 01:56:27;;;;;;;10.38;3.47;;;;;;;;;;5180337;27;20145;-67
2021/05/28 01:58:53;;;;;;;7.05;2.90;;;;;;;;;;5178578;27;20436;-65
2021/05/28 02:01:20;;;;;;;10.73;3.00;;;;;;;;;;5178669;27;20240;-65
2021/05/28 02:03:45;;;;;;;3.90;2.62;;;;;;;;;;5178951;27;20073;-65
2021/05/28 02:06:11;;;;;;;3.67;2.67;;;;;;;;;;5180172;27;20170;-65
2021/05/28 02:08:37;;;;;;;7.93;2.62;;;;;;;;;;5180373;27;20158;-64
2021/05/28 02:11:03;;;;;;;13.57;2.87;;;;;;;;;;5180069;27;20102;-65
2021/05/28 02:13:29;;;;;;;6.35;2.40;;;;;;;;;;5180353;27;20115;-65
2021/05/28 02:15:56;;;;;;;4.55;2.10;;;;;;;;;;5180075;27;20120;-67
2021/05/28 02:18:22;;;;;;;3.10;2.08;;;;;;;;;;5180508;27;20063;-67
2021/05/28 02:20:49;;;;;;;4.07;2.55;;;;;;;;;;5178795;27;20090;-63
2021/05/28 02:23:15;;;;;;;4.75;2.50;;;;;;;;;;5180348;27;20427;-67
2021/05/28 02:25:41;;;;;;;3.17;2.35;;;;;;;;;;5180136;27;20098;-66
2021/05/28 02:28:07;;;;;;;9.93;2.15;;;;;;;;;;5179868;27;20590;-63
2021/05/28 02:30:33;;;;;;;5.85;2.12;;;;;;;;;;5180406;27;20536;-63
2021/05/28 02:32:59;;;;;;;4.32;2.60;;;;;;;;;;5178616;27;20216;-63
2021/05/28 02:35:24;;;;;;;3.92;2.00;;;;;;;;;;5180285;27;20409;-64
2021/05/28 02:37:50;;;;;;;4.75;3.12;;;;;;;;;;5180536;27;20084;-64
2021/05/28 02:40:16;;;;;;;2.97;2.37;;;;;;;;;;5178777;27;20193;-66
2021/05/28 02:42:42;;;;;;;13.00;2.55;;;;;;;;;;5180252;27;20097;-66
2021/05/28 02:45:08;;;;;;;5.60;2.30;;;;;;;;;;5180100;27;20093;-64
2021/05/28 02:47:34;;;;;;;5.60;2.17;;;;;;;;;;5180208;27;20098;-63
2021/05/28 02:50:00;;;;;;;8.30;2.50;;;;;;;;;;5180229;27;20098;-66
2021/05/28 02:52:29;;;;;;;10.07;2.20;;;;;;;;;;5180070;27;20185;-64
2021/05/28 02:54:55;;;;;;;4.15;2.08;;;;;;;;;;5178418;27;20084;-65
2021/05/28 02:57:21;;;;;;;13.57;2.78;;;;;;;;;;5179968;27;20173;-64
2021/05/28 02:59:47;;;;;;;8.45;2.45;;;;;;;;;;5180078;27;20106;-64
2021/05/28 03:02:12;;;;;;;3.40;2.00;;;;;;;;;;5179975;27;20120;-63
2021/05/28 03:04:38;;;;;;;2.80;1.95;;;;;;;;;;5180227;27;20086;-63
2021/05/28 03:07:04;;;;;;;8.35;2.08;;;;;;;;;;5179142;27;20491;-66
2021/05/28 03:09:31;;;;;;;8.43;2.42;;;;;;;;;;5178145;27;20177;-64
2021/05/28 03:11:57;;;;;;;5.97;2.08;;;;;;;;;;5178101;27;20096;-66
2021/05/28 03:14:22;;;;;;;7.30;2.30;;;;;;;;;;5178905;27;20260;-65
2021/05/28 03:16:48;;;;;;;7.15;2.42;;;;;;;;;;5178853;27;20096;-63
2021/05/28 03:19:21;;;;;;;11.02;3.00;;;;;;;;;;5179209;27;20409;-63
2021/05/28 03:24:32;;;;;;;9.55;3.12;;;;;;;;;;5180165;27;20595;-66
2021/05/28 03:26:58;;;;;;;5.90;2.92;;;;;;;;;;5178026;27;20089;-63
2021/05/28 03:29:24;;;;;;;6.93;3.05;;;;;;;;;;5179922;27;20108;-64
2021/05/28 03:31:50;;;;;;;10.55;3.35;;;;;;;;;;5179870;27;20499;-67
2021/05/28 03:34:16;;;;;;;6.70;3.05;;;;;;;;;;5179876;27;20487;-63
2021/05/28 03:36:42;;;;;;;12.32;3.85;;;;;;;;;;5179943;27;20167;-64
2021/05/28 03:39:08;;;;;;;21.42;5.37;;;;;;;;;;5178320;27;20187;-63
2021/05/28 03:41:33;;;;;;;11.07;4.57;;;;;;;;;;5179992;27;20098;-64
2021/05/28 03:43:59;;;;;;;13.25;5.45;;;;;;;;;;5180024;27;20121;-64
2021/05/28 03:46:25;;;;;;;12.60;4.87;;;;;;;;;;5179672;27;20480;-63
2021/05/28 03:48:51;;;;;;;12.05;4.25;;;;;;;;;;5181507;27;20082;-64
2021/05/28 03:51:17;;;;;;;13.90;4.37;;;;;;;;;;5180949;27;20390;-64
2021/05/28 03:53:43;;;;;;;11.12;5.45;;;;;;;;;;5181261;27;20109;-64
2021/05/28 03:56:09;;;;;;;12.25;4.75;;;;;;;;;;5181032;27;20429;-67
2021/05/28 03:58:35;;;;;;;16.10;7.12;;;;;;;;;;5181160;27;20128;-64
2021/05/28 04:01:01;;;;;;;21.02;8.02;;;;;;;;;;5181081;27;20113;-63
2021/05/28 04:03:26;;;;;;;18.35;8.20;;;;;;;;;;5181107;27;20102;-67
2021/05/28 04:05:52;;;;;;;20.45;8.73;;;;;;;;;;5181042;27;20436;-64
2021/05/28 04:08:18;;;;;;;20.40;7.53;;;;;;;;;;5179459;27;20155;-67
2021/05/28 04:10:44;;;;;;;21.67;7.35;;;;;;;;;;5181005;27;20089;-63
2021/05/28 04:13:10;;;;;;;16.95;6.90;;;;;;;;;;5181285;27;20070;-63
2021/05/28 04:15:37;;;;;;;14.98;5.65;;;;;;;;;;5181396;27;20113;-64
2021/05/28 04:18:03;;;;;;;17.92;5.87;;;;;;;;;;5181304;27;20062;-66
2021/05/28 04:20:28;;;;;;;9.98;5.80;;;;;;;;;;5180984;27;20447;-67
2021/05/28 04:22:54;;;;;;;13.05;5.60;;;;;;;;;;5181075;27;20090;-65
2021/05/28 04:25:20;;;;;;;14.87;6.78;;;;;;;;;;5180893;27;20484;-64
2021/05/28 04:27:46;;;;;;;13.32;5.70;;;;;;;;;;5180597;27;20496;-62
2021/05/28 04:30:13;;;;;;;11.43;5.57;;;;;;;;;;5180864;27;20228;-63
2021/05/28 04:32:39;;;;;;;16.42;6.75;;;;;;;;;;5180874;27;20088;-63
2021/05/28 04:35:05;;;;;;;17.55;7.40;;;;;;;;;;5180915;27;20093;-65
2021/05/28 04:37:31;;;;;;;19.30;8.70;;;;;;;;;;5179419;27;20178;-64
2021/05/28 04:39:57;;;;;;;30.85;13.18;;;;;;;;;;5180859;27;20548;-63
2021/05/28 04:42:23;;;;;;;38.25;15.77;;;;;;;;;;5180854;27;20089;-63
2021/05/28 04:44:49;;;;;;;38.97;15.98;;;;;;;;;;5180840;27;20104;-64
2021/05/28 04:47:14;;;;;;;37.83;17.95;;;;;;;;;;5180614;27;20089;-64
2021/05/28 04:49:40;;;;;;;49.90;18.45;;;;;;;;;;5179134;27;20070;-63
2021/05/28 04:52:06;;;;;;;51.03;17.00;;;;;;;;;;5180853;27;20157;-66
2021/05/28 04:54:32;;;;;;;37.10;17.40;;;;;;;;;;5180562;27;20195;-63
2021/05/28 04:56:58;;;;;;;44.60;17.85;;;;;;;;;;5161453;27;20085;-62
2021/05/28 04:59:24;;;;;;;42.42;17.60;;;;;;;;;;5161538;27;20105;-67
2021/05/28 05:01:50;;;;;;;43.50;17.42;;;;;;;;;;5180371;27;20172;-64
2021/05/28 05:04:16;;;;;;;43.13;16.95;;;;;;;;;;5180672;27;20480;-66
2021/05/28 05:06:42;;;;;;;39.40;15.07;;;;;;;;;;5180803;27;20401;-63
2021/05/28 05:09:08;;;;;;;31.98;14.23;;;;;;;;;;5178833;27;20097;-62
2021/05/28 05:11:34;;;;;;;43.42;15.95;;;;;;;;;;5180241;27;20578;-63
2021/05/28 05:14:00;;;;;;;45.80;16.15;;;;;;;;;;5180600;27;20256;-63
2021/05/28 05:16:26;;;;;;;31.42;15.00;;;;;;;;;;5180296;27;20091;-64
2021/05/28 05:18:51;;;;;;;33.33;12.68;;;;;;;;;;5179107;27;20112;-66
2021/05/28 05:21:18;;;;;;;47.33;13.75;;;;;;;;;;5180347;27;20101;-62
2021/05/28 05:23:44;;;;;;;34.72;13.68;;;;;;;;;;5180271;27;20093;-66
2021/05/28 05:26:10;;;;;;;42.88;13.60;;;;;;;;;;5180668;27;20093;-62
2021/05/28 05:28:36;;;;;;;34.08;10.95;;;;;;;;;;5180133;27;20109;-63
2021/05/28 05:31:03;;;;;;;34.10;11.25;;;;;;;;;;5180504;27;20086;-65
2021/05/28 05:33:30;;;;;;;27.15;10.13;;;;;;;;;;5178576;27;20084;-63
2021/05/28 05:35:56;;;;;;;28.33;9.15;;;;;;;;;;5180158;27;20074;-61
2021/05/28 05:38:22;;;;;;;17.55;7.55;;;;;;;;;;5179836;27;20074;-64
2021/05/28 05:40:48;;;;;;;19.30;7.43;;;;;;;;;;5179169;27;20105;-64
2021/05/28 05:43:14;;;;;;;26.52;7.22;;;;;;;;;;5179307;27;20550;-65
2021/05/28 05:45:40;;;;;;;23.42;7.57;;;;;;;;;;5180219;27;20077;-63
2021/05/28 05:48:07;;;;;;;17.77;5.75;;;;;;;;;;5180194;27;20063;-63
2021/05/28 05:50:33;;;;;;;15.80;5.85;;;;;;;;;;5179757;27;20069;-64
2021/05/28 05:52:59;;;;;;;13.23;6.22;;;;;;;;;;5180050;27;20082;-62
2021/05/28 05:55:25;;;;;;;12.98;6.05;;;;;;;;;;5180075;27;20071;-63
2021/05/28 05:57:51;;;;;;;15.40;5.35;;;;;;;;;;5179752;27;20066;-65
2021/05/28 06:00:18;;;;;;;18.37;5.47;;;;;;;;;;5178235;27;20077;-65
2021/05/28 06:02:44;;;;;;;12.88;4.35;;;;;;;;;;5179837;27;20153;-67
2021/05/28 06:05:10;;;;;;;12.50;4.62;;;;;;;;;;5180290;27;20097;-70
2021/05/28 06:07:36;;;;;;;14.00;5.55;;;;;;;;;;5179596;27;20083;-66
2021/05/28 06:10:03;;;;;;;12.35;5.03;;;;;;;;;;5180059;27;20199;-65
2021/05/28 06:12:29;;;;;;;13.15;4.57;;;;;;;;;;5179889;27;20088;-63
2021/05/28 06:14:54;;;;;;;11.27;4.70;;;;;;;;;;5179996;27;20089;-63
2021/05/28 06:17:20;;;;;;;10.20;3.70;;;;;;;;;;5179880;27;20422;-64
2021/05/28 06:19:46;;;;;;;9.02;3.95;;;;;;;;;;5179737;27;20097;-63
2021/05/28 06:22:13;;;;;;;7.53;3.55;;;;;;;;;;5179794;27;20078;-62
2021/05/28 06:24:38;;;;;;;12.95;4.05;;;;;;;;;;5180046;27;20105;-65
2021/05/28 06:27:08;;;;;;;7.65;4.15;;;;;;;;;;5177785;27;20137;-63
2021/05/28 06:29:34;;;;;;;8.93;3.87;;;;;;;;;;5179892;27;20432;-63
2021/05/28 06:32:00;;;;;;;6.50;3.12;;;;;;;;;;5179906;27;20185;-63
2021/05/28 06:34:26;;;;;;;7.22;3.10;;;;;;;;;;5179849;27;20102;-63
2021/05/28 06:36:52;;;;;;;7.50;3.33;;;;;;;;;;5179751;27;20622;-65
2021/05/28 06:39:18;;;;;;;11.07;3.20;;;;;;;;;;5195578;27;20163;-62
2021/05/28 06:41:44;;;;;;;5.50;2.87;;;;;;;;;;5179509;27;20077;-63
2021/05/28 06:44:09;;;;;;;6.78;2.70;;;;;;;;;;5179465;27;20158;-66
2021/05/28 06:46:36;;;;;;;8.93;3.05;;;;;;;;;;5179848;27;20081;-66
2021/05/28 06:49:03;;;;;;;7.68;3.03;;;;;;;;;;5177729;27;20082;-64
2021/05/28 06:51:30;;;;;;;4.95;2.55;;;;;;;;;;5180002;27;20160;-64
2021/05/28 06:53:56;;;;;;;5.15;3.00;;;;;;;;;;5179943;27;20112;-64
2021/05/28 06:56:22;;;;;;;5.87;3.08;;;;;;;;;;5179807;27;20078;-65
2021/05/28 06:58:49;;;;;;;7.57;3.47;;;;;;;;;;5179930;27;20089;-64
2021/05/28 07:01:15;;;;;;;4.43;2.33;;;;;;;;;;5179964;27;20243;-63
2021/05/28 07:03:41;;;;;;;9.00;2.40;;;;;;;;;;5180227;27;20070;-64
2021/05/28 07:06:08;;;;;;;7.40;2.25;;;;;;;;;;5179724;27;20102;-69
2021/05/28 07:08:34;;;;;;;8.07;1.80;;;;;;;;;;5177627;27;20153;-65
2021/05/28 07:11:01;;;;;;;6.60;1.90;;;;;;;;;;5178681;27;20405;-66
2021/05/28 07:13:27;;;;;;;3.10;1.67;;;;;;;;;;5177556;27;20093;-63
2021/05/28 07:15:54;;;;;;;6.62;1.95;;;;;;;;;;5179769;27;20146;-66
2021/05/28 07:18:19;;;;;;;2.70;1.90;;;;;;;;;;5179879;27;20126;-65
2021/05/28 07:20:58;;;;;;;3.17;2.35;;;;;;;;;;5179823;27;20100;-63
2021/05/28 07:23:25;;;;;;;3.72;2.10;;;;;;;;;;5179143;27;20098;-63
2021/05/28 07:25:51;;;;;;;2.10;1.60;;;;;;;;;;5181234;27;20085;-65
2021/05/28 07:28:17;;;;;;;4.00;1.67;;;;;;;;;;5181061;27;20359;-64
2021/05/28 07:30:43;;;;;;;3.15;2.00;;;;;;;;;;5179738;27;20097;-66
2021/05/28 07:33:08;;;;;;;2.08;1.90;;;;;;;;;;5179329;27;20163;-64
2021/05/28 07:35:35;;;;;;;4.37;1.70;;;;;;;;;;5181129;27;20084;-63
2021/05/28 07:38:01;;;;;;;4.60;2.08;;;;;;;;;;5180610;27;20146;-64
2021/05/28 07:40:27;;;;;;;5.65;1.67;;;;;;;;;;5181008;27;20196;-62
2021/05/28 07:42:53;;;;;;;4.12;2.10;;;;;;;;;;5181179;27;20075;-63
2021/05/28 07:45:19;;;;;;;5.75;1.90;;;;;;;;;;5181366;27;20070;-63
2021/05/28 07:47:45;;;;;;;4.53;1.77;;;;;;;;;;5180623;27;20101;-65
2021/05/28 07:50:11;;;;;;;5.57;1.60;;;;;;;;;;5181113;27;20090;-63
2021/05/28 07:52:37;;;;;;;8.05;1.92;;;;;;;;;;5181060;27;20084;-64
2021/05/28 07:55:04;;;;;;;1.77;1.48;;;;;;;;;;5179310;27;20086;-64
2021/05/28 07:57:30;;;;;;;6.35;2.00;;;;;;;;;;5180799;27;20085;-66
2021/05/28 07:59:55;;;;;;;4.47;1.62;;;;;;;;;;5178939;27;20172;-63
2021/05/28 08:02:21;;;;;;;9.70;2.10;;;;;;;;;;5179116;27;20515;-63
2021/05/28 08:04:47;;;;;;;1.33;1.23;;;;;;;;;;5180953;27;20089;-65
2021/05/28 08:07:13;;;;;;;3.47;1.83;;;;;;;;;;5180752;27;20082;-65
2021/05/28 08:09:39;;;;;;;13.52;1.85;;;;;;;;;;5174582;27;20563;-64
2021/05/28 08:12:05;;;;;;;4.03;1.60;;;;;;;;;;5180993;27;20084;-63
2021/05/28 08:14:31;;;;;;;4.82;1.45;;;;;;;;;;5178962;27;20132;-65
2021/05/28 08:16:57;;;;;;;2.20;1.65;;;;;;;;;;5180779;27;20145;-63
2021/05/28 08:19:23;;;;;;;3.15;1.45;;;;;;;;;;5180738;27;20484;-65
2021/05/28 08:21:49;;;;;;;3.83;1.60;;;;;;;;;;5180779;27;20157;-64
2021/05/28 08:24:15;;;;;;;5.28;1.87;;;;;;;;;;5180083;27;20097;-65
2021/05/28 08:26:41;;;;;;;1.65;1.40;;;;;;;;;;5180322;27;20175;-63
2021/05/28 08:29:08;;;;;;;3.25;1.48;;;;;;;;;;5180454;27;20093;-65
2021/05/28 08:31:34;;;;;;;2.45;1.58;;;;;;;;;;5180578;27;20555;-64
2021/05/28 08:34:01;;;;;;;3.33;2.47;;;;;;;;;;5180835;27;20172;-65
2021/05/28 08:36:27;;;;;;;7.50;3.67;;;;;;;;;;5180607;27;20086;-64
2021/05/28 08:39:10;;;;;;;3.67;2.00;;;;;;;;;;5180262;27;20215;-64
2021/05/28 08:42:34;;;;;;;2.00;1.60;;;;;;;;;;5067025;28;20197;-64
2021/05/28 08:45:00;;;;;;;1.92;1.80;;;;;;;;;;5158619;27;20666;-65
2021/05/28 08:47:26;;;;;;;6.40;2.22;;;;;;;;;;5180475;27;20316;-62
2021/05/28 08:49:55;;;;;;;2.22;1.48;;;;;;;;;;5180631;27;20074;-66
2021/05/28 08:52:21;;;;;;;3.70;2.15;;;;;;;;;;5180276;27;20086;-65
2021/05/28 08:54:49;;;;;;;4.40;1.55;;;;;;;;;;5180491;27;20094;-64
2021/05/28 08:57:19;;;;;;;2.75;1.73;;;;;;;;;;5179605;27;20170;-62
2021/05/28 08:59:55;;;;;;;6.45;1.90;;;;;;;;;;5178746;27;20591;-62
2021/05/28 09:02:39;;;;;;;2.90;1.27;;;;;;;;;;5178321;27;20096;-65
2021/05/28 09:05:06;;;;;;;1.87;1.50;;;;;;;;;;5176536;27;20492;-63
2021/05/28 09:07:32;;;;;;;1.52;1.33;;;;;;;;;;5178395;27;20417;-63
2021/05/28 09:09:58;;;;;;;1.50;1.40;;;;;;;;;;5179055;27;20415;-65
2021/05/28 09:12:27;;;;;;;2.60;1.83;;;;;;;;;;5179326;27;20102;-63
2021/05/28 09:14:54;;;;;;;6.25;1.45;;;;;;;;;;5180628;27;20076;-64
2021/05/28 09:17:20;;;;;;;3.80;1.35;;;;;;;;;;5180405;27;20090;-63
2021/05/28 09:19:54;;;;;;;10.07;1.60;;;;;;;;;;5180521;27;20162;-64
2021/05/28 09:22:21;;;;;;;3.10;1.80;;;;;;;;;;5178885;27;20065;-63
2021/05/28 09:24:47;;;;;;;2.05;1.58;;;;;;;;;;5178026;27;20097;-65
2021/05/28 09:27:26;;;;;;;1.92;1.40;;;;;;;;;;5178509;27;20570;-63
2021/05/28 09:30:15;;;;;;;6.60;1.70;;;;;;;;;;5180557;27;20057;-66
2021/05/28 09:32:44;;;;;;;4.05;1.52;;;;;;;;;;5180725;27;20077;-64
2021/05/28 09:35:15;;;;;;;3.90;1.40;;;;;;;;;;5180348;27;20239;-64
2021/05/28 09:37:46;;;;;;;4.30;1.58;;;;;;;;;;5180421;27;20179;-65
2021/05/28 09:40:18;;;;;;;1.37;1.27;;;;;;;;;;5178737;27;20169;-65
2021/05/28 09:42:54;;;;;;;2.35;1.83;;;;;;;;;;5180096;27;20070;-61
2021/05/28 09:45:21;;;;;;;1.75;1.62;;;;;;;;;;5178916;27;20169;-62
2021/05/28 09:47:47;;;;;;;1.70;1.60;;;;;;;;;;5180326;27;20413;-62
2021/05/28 09:50:14;;;;;;;3.75;1.50;;;;;;;;;;5180219;27;20531;-63
2021/05/28 09:52:41;;;;;;;8.02;2.05;;;;;;;;;;5180613;27;20397;-63
2021/05/28 09:55:09;;;;;;;3.78;2.37;;;;;;;;;;5180541;27;20152;-64
2021/05/28 09:57:48;;;;;;;1.40;1.30;;;;;;;;;;5180014;27;20159;-62
2021/05/28 10:00:20;;;;;;;1.20;1.20;;;;;;;;;;5180286;27;20066;-63
2021/05/28 10:02:46;;;;;;;2.65;1.60;;;;;;;;;;5180589;27;20535;-63
2021/05/28 10:05:20;;;;;;;2.10;1.50;;;;;;;;;;5180229;27;20165;-62
2021/05/28 10:07:48;;;;;;;2.83;1.70;;;;;;;;;;5179657;27;20176;-64
2021/05/28 10:10:17;;;;;;;2.40;1.25;;;;;;;;;;5178769;27;20167;-63
2021/05/28 10:12:44;;;;;;;1.42;1.33;;;;;;;;;;5180462;27;20152;-64
2021/05/28 10:15:12;;;;;;;1.30;1.20;;;;;;;;;;5178840;27;20074;-62
2021/05/28 10:17:38;;;;;;;5.72;1.50;;;;;;;;;;5180245;27;20192;-65
2021/05/28 10:20:05;;;;;;;5.12;1.60;;;;;;;;;;5180216;27;20518;-65
2021/05/28 10:22:31;;;;;;;3.87;2.10;;;;;;;;;;5180230;27;20700;-63
2021/05/28 10:24:57;;;;;;;2.08;1.73;;;;;;;;;;5178683;27;20105;-63
2021/05/28 10:27:24;;;;;;;1.40;1.30;;;;;;;;;;5179948;27;20086;-62
2021/05/28 10:29:52;;;;;;;6.57;1.75;;;;;;;;;;5178482;27;20103;-63
2021/05/28 10:32:18;;;;;;;3.92;2.42;;;;;;;;;;5179976;27;20082;-64
2021/05/28 10:35:02;;;;;;;1.65;1.37;;;;;;;;;;5178348;27;20089;-64
2021/05/28 10:37:28;;;;;;;4.53;1.83;;;;;;;;;;5180005;27;20117;-65
2021/05/28 10:39:54;;;;;;;1.90;1.55;;;;;;;;;;5180429;27;20070;-62
2021/05/28 10:42:20;;;;;;;1.75;1.30;;;;;;;;;;5178591;27;20476;-64
2021/05/28 10:44:47;;;;;;;2.12;1.45;;;;;;;;;;5180221;27;20085;-64
2021/05/28 10:47:14;;;;;;;3.70;1.95;;;;;;;;;;5180249;27;20579;-64
2021/05/28 10:49:44;;;;;;;3.10;2.50;;;;;;;;;;5180165;27;20499;-65
2021/05/28 10:52:16;;;;;;;4.20;1.80;;;;;;;;;;5180003;27;20187;-64
2021/05/28 10:54:52;;;;;;;7.07;1.87;;;;;;;;;;5181243;27;20097;-62
2021/05/28 10:57:22;;;;;;;17.92;3.30;;;;;;;;;;5179934;27;20078;-63
2021/05/28 10:59:53;;;;;;;9.98;2.67;;;;;;;;;;5181590;27;20097;-66
2021/05/28 11:02:47;;;;;;;8.57;2.60;;;;;;;;;;5181485;27;20101;-66
2021/05/28 11:05:14;;;;;;;5.80;2.00;;;;;;;;;;5181432;27;20078;-65
2021/05/28 11:07:47;;;;;;;2.03;1.58;;;;;;;;;;5180230;27;20160;-64
2021/05/28 11:10:25;;;;;;;2.72;1.58;;;;;;;;;;5196485;27;20109;-65
2021/05/28 11:12:54;;;;;;;1.40;1.30;;;;;;;;;;5180320;27;20084;-62
2021/05/28 11:15:28;;;;;;;2.17;1.48;;;;;;;;;;5181331;27;20101;-64
2021/05/28 11:17:58;;;;;;;6.57;1.40;;;;;;;;;;5179033;27;20502;-63
2021/05/28 11:20:35;;;;;;;1.58;1.48;;;;;;;;;;5181205;27;20744;-65
2021/05/28 11:23:09;;;;;;;1.52;1.42;;;;;;;;;;5180024;27;20058;-62
2021/05/28 11:25:45;;;;;;;2.78;1.50;;;;;;;;;;5179549;27;20082;-63
2021/05/28 11:28:11;;;;;;;2.62;1.50;;;;;;;;;;5181339;27;20089;-63
2021/05/28 11:30:40;;;;;;;4.53;2.05;;;;;;;;;;5181691;27;20094;-64
2021/05/28 11:33:06;;;;;;;1.40;1.30;;;;;;;;;;5181161;27;20084;-64
2021/05/28 11:35:42;;;;;;;9.30;1.65;;;;;;;;;;5181534;27;20409;-64
2021/05/28 11:38:10;;;;;;;3.08;1.80;;;;;;;;;;5180485;27;20518;-65
2021/05/28 11:40:39;;;;;;;4.65;1.37;;;;;;;;;;5179888;27;20085;-64
2021/05/28 11:43:18;;;;;;;2.15;1.50;;;;;;;;;;5181279;27;20089;-60
2021/05/28 11:45:54;;;;;;;1.60;1.30;;;;;;;;;;5181254;27;20405;-65
2021/05/28 11:48:21;;;;;;;1.58;1.48;;;;;;;;;;5181419;27;20082;-62
2021/05/28 11:50:49;;;;;;;2.58;1.45;;;;;;;;;;5181129;27;20090;-65
2021/05/28 11:53:15;;;;;;;4.10;1.48;;;;;;;;;;5180955;27;20070;-64
2021/05/28 11:55:53;;;;;;;4.45;1.50;;;;;;;;;;5181263;27;20181;-62
2021/05/28 11:58:21;;;;;;;1.48;1.37;;;;;;;;;;5181206;27;20104;-65
2021/05/28 12:00:49;;;;;;;1.20;1.10;;;;;;;;;;5181026;27;20074;-63
2021/05/28 12:03:15;;;;;;;5.60;2.03;;;;;;;;;;5181408;27;20145;-63
2021/05/28 12:05:42;;;;;;;1.40;1.30;;;;;;;;;;5180698;27;20173;-63
2021/05/28 12:08:11;;;;;;;4.32;2.10;;;;;;;;;;5180817;27;20598;-65
2021/05/28 12:10:50;;;;;;;4.70;1.70;;;;;;;;;;5180898;27;20096;-64
2021/05/28 12:13:41;;;;;;;3.47;1.77;;;;;;;;;;5181049;27;20085;-64
2021/05/28 12:16:11;;;;;;;5.40;1.60;;;;;;;;;;5180727;27;20078;-65
2021/05/28 12:18:47;;;;;;;1.73;1.37;;;;;;;;;;5181122;27;20063;-64
2021/05/28 12:21:17;;;;;;;;;;;;;;;;;;5180970;27;20080;-62
2021/05/28 12:23:47;;;;;;;2.28;1.85;;;;;;;;;;5179258;27;19977;-63
2021/05/28 12:26:24;;;;;;;1.58;1.20;;;;;;;;;;5180767;27;20080;-64
2021/05/28 12:28:55;;;;;;;5.47;1.58;;;;;;;;;;5180935;27;20106;-63
2021/05/28 12:31:26;;;;;;;4.65;1.40;;;;;;;;;;5180649;27;20174;-65
2021/05/28 12:33:59;;;;;;;1.55;1.40;;;;;;;;;;5181144;27;20109;-63
2021/05/28 12:36:39;;;;;;;1.60;1.50;;;;;;;;;;5180810;27;20106;-64
2021/05/28 12:39:15;;;;;;;1.40;1.30;;;;;;;;;;5180854;27;20105;-65
2021/05/28 12:41:43;;;;;;;4.62;1.70;;;;;;;;;;5179245;27;20400;-64
2021/05/28 12:44:09;;;;;;;1.92;1.45;;;;;;;;;;5180710;27;20105;-65
2021/05/28 12:46:38;;;;;;;2.03;1.62;;;;;;;;;;5181040;27;20087;-64
2021/05/28 12:49:09;;;;;;;4.10;1.52;;;;;;;;;;5180199;27;20074;-65
2021/05/28 12:51:38;;;;;;;1.87;1.37;;;;;;;;;;5180729;27;20171;-63
2021/05/28 12:54:33;;;;;;;4.50;1.95;;;;;;;;;;5180630;27;20248;-65
2021/05/28 12:57:00;;;;;;;1.47;1.10;;;;;;;;;;5167099;27;20097;-65
2021/05/28 12:59:38;;;;;;;2.50;1.75;;;;;;;;;;5179133;27;20393;-64
2021/05/28 13:02:15;;;;;;;3.97;1.58;;;;;;;;;;5180189;27;20389;-62
2021/05/28 13:04:52;;;;;;;1.60;1.50;;;;;;;;;;5178912;27;20159;-64
2021/05/28 13:07:37;;;;;;;11.00;2.12;;;;;;;;;;5180407;27;20181;-65
2021/05/28 13:10:22;;;;;;;6.82;1.62;;;;;;;;;;5180684;27;20090;-63
2021/05/28 13:12:49;;;;;;;2.90;1.80;;;;;;;;;;5179126;27;20105;-63
2021/05/28 13:15:26;;;;;;;2.37;1.60;;;;;;;;;;5180642;27;20378;-64
2021/05/28 13:17:53;;;;;;;6.28;1.70;;;;;;;;;;5180450;27;20105;-66
2021/05/28 13:20:19;;;;;;;3.10;1.83;;;;;;;;;;5180728;27;20058;-64
2021/05/28 13:22:49;;;;;;;2.70;1.80;;;;;;;;;;5179964;27;20511;-65
2021/05/28 13:25:31;;;;;;;3.60;2.00;;;;;;;;;;5178848;27;20077;-65
2021/05/28 13:28:07;;;;;;;5.37;1.62;;;;;;;;;;5180716;27;20086;-66
2021/05/28 13:31:06;;;;;;;5.10;1.60;;;;;;;;;;5180761;27;20081;-66
2021/05/28 13:33:33;;;;;;;7.00;1.70;;;;;;;;;;5177178;27;20164;-66
2021/05/28 13:36:16;;;;;;;3.15;1.67;;;;;;;;;;5180391;27;20110;-66
2021/05/28 13:38:47;;;;;;;4.03;1.92;;;;;;;;;;5180511;27;20074;-65
2021/05/28 13:41:17;;;;;;;7.80;1.90;;;;;;;;;;5178619;27;20082;-64
2021/05/28 13:43:43;;;;;;;3.33;1.58;;;;;;;;;;5180684;27;20161;-66
2021/05/28 13:46:09;;;;;;;13.50;2.67;;;;;;;;;;5178828;27;20085;-66
2021/05/28 13:48:36;;;;;;;5.87;1.70;;;;;;;;;;5180357;27;20074;-67
2021/05/28 13:51:02;;;;;;;2.37;1.60;;;;;;;;;;5180237;27;20093;-65
2021/05/28 13:53:28;;;;;;;4.45;2.03;;;;;;;;;;5178516;27;20124;-65
2021/05/28 13:55:54;;;;;;;3.62;1.80;;;;;;;;;;5180269;27;20102;-65
2021/05/28 13:58:22;;;;;;;8.15;2.17;;;;;;;;;;5178797;27;20078;-67
2021/05/28 14:00:48;;;;;;;7.07;1.73;;;;;;;;;;5180286;27;20138;-64
2021/05/28 14:03:14;;;;;;;3.08;1.73;;;;;;;;;;5179996;27;20058;-65
2021/05/28 14:05:40;;;;;;;5.20;1.75;;;;;;;;;;5180278;27;20120;-65
2021/05/28 14:08:07;;;;;;;6.20;2.20;;;;;;;;;;5180443;27;20472;-68
2021/05/28 14:10:33;;;;;;;2.95;1.60;;;;;;;;;;5178516;27;20101;-65
2021/05/28 14:12:59;;;;;;;6.57;1.83;;;;;;;;;;5178490;27;20081;-64
2021/05/28 14:15:25;;;;;;;4.78;1.33;;;;;;;;;;5178853;27;20089;-64
2021/05/28 14:17:52;;;;;;;7.45;1.85;;;;;;;;;;5180252;27;20062;-68
2021/05/28 14:20:22;;;;;;;2.78;1.70;;;;;;;;;;5180376;27;20173;-68
2021/05/28 14:22:54;;;;;;;9.77;3.40;;;;;;;;;;5180259;27;20101;-68
2021/05/28 14:25:26;;;;;;;5.05;1.80;;;;;;;;;;5178466;27;20074;-64
2021/05/28 14:27:56;;;;;;;1.58;1.45;;;;;;;;;;5179869;27;20184;-66
2021/05/28 14:30:27;;;;;;;8.77;1.42;;;;;;;;;;5180223;27;20214;-66
2021/05/28 14:32:54;;;;;;;3.30;1.35;;;;;;;;;;5178652;27;20089;-65
2021/05/28 14:35:22;;;;;;;2.10;1.40;;;;;;;;;;5180121;27;20105;-63
2021/05/28 14:37:50;;;;;;;3.15;1.62;;;;;;;;;;5178585;27;20074;-64
2021/05/28 14:40:18;;;;;;;4.72;2.25;;;;;;;;;;5178700;27;20085;-65
2021/05/28 14:42:44;;;;;;;5.20;2.83;;;;;;;;;;5195872;27;20062;-67
2021/05/28 14:45:11;;;;;;;2.55;1.98;;;;;;;;;;5180011;27;20516;-66
2021/05/28 14:47:38;;;;;;;3.42;1.70;;;;;;;;;;5179953;27;20070;-67
2021/05/28 14:50:06;;;;;;;4.30;2.15;;;;;;;;;;5178302;27;20163;-69
2021/05/28 14:52:33;;;;;;;1.40;1.30;;;;;;;;;;5180457;27;20129;-64
2021/05/28 14:54:59;;;;;;;2.80;1.67;;;;;;;;;;5180096;27;20070;-64
2021/05/28 14:57:24;;;;;;;2.15;1.67;;;;;;;;;;5180450;27;20207;-63
2021/05/28 14:59:52;;;;;;;1.98;1.77;;;;;;;;;;5180081;27;20082;-67
2021/05/28 15:02:21;;;;;;;1.45;1.33;;;;;;;;;;5180139;27;20077;-64
2021/05/28 15:04:47;;;;;;;2.17;1.98;;;;;;;;;;5178378;27;20497;-67
2021/05/28 15:07:12;;;;;;;3.33;1.40;;;;;;;;;;5180152;27;20271;-64
2021/05/28 15:09:38;;;;;;;5.12;1.98;;;;;;;;;;5180031;27;20104;-65
2021/05/28 15:12:05;;;;;;;3.20;1.55;;;;;;;;;;5179800;27;20484;-64